Harvard, Nebraska
Current Conditions -  °F | °C
As of 9:53 AM on Friday 31 Oct 2014 (Local Time) from KHSI Reporting Station
Clear Clear  
Wind Chill: 20°   Ceiling: Unl
Heat Index: 30°   Visibility: 10mi
Dew Point: 18°   Wind: 14mph
Humidity: 61%   Direction: 10°N
Pressure: 30.57"   Gusts: NA
Location:  40.62°N, 98.1°W
Report Text: KHSI 311453Z AUTO 01012KT 10SM CLR M01/M08 A3057 RMK AO2 SLP369 T10111078 53013
Loading
Personal Weather Stations






























Interactive Weather Map
Tropical Storm Tracking
New forecast layout! Learn more

10-Day Weather Forecast

Advertisements
Track Severe Weather on mobile